sensor_id;sensor_type;location;lat;lon;timestamp;temperature;humidity
35463;DHT22;21578;47.892;9.970;2024-01-10T00:00:03;-5.20;96.60
35463;DHT22;21578;47.892;9.970;2024-01-10T00:04:49;-5.20;96.60
35463;DHT22;21578;47.892;9.970;2024-01-10T00:09:36;-5.20;96.60
35463;DHT22;21578;47.892;9.970;2024-01-10T00:14:24;-5.20;96.60
35463;DHT22;21578;47.892;9.970;2024-01-10T00:19:11;-5.20;96.60
35463;DHT22;21578;47.892;9.970;2024-01-10T00:23:58;-5.20;96.60
35463;DHT22;21578;47.892;9.970;2024-01-10T00:28:44;-5.20;96.60
35463;DHT22;21578;47.892;9.970;2024-01-10T00:33:32;-5.10;96.60
35463;DHT22;21578;47.892;9.970;2024-01-10T00:38:19;-5.10;96.60
35463;DHT22;21578;47.892;9.970;2024-01-10T00:43:06;-5.10;96.60
35463;DHT22;21578;47.892;9.970;2024-01-10T00:47:53;-5.10;96.60
35463;DHT22;21578;47.892;9.970;2024-01-10T00:52:41;-5.00;96.60
35463;DHT22;21578;47.892;9.970;2024-01-10T00:57:28;-5.00;96.60
35463;DHT22;21578;47.892;9.970;2024-01-10T01:02:14;-4.90;96.60
35463;DHT22;21578;47.892;9.970;2024-01-10T01:07:01;-4.90;96.60
35463;DHT22;21578;47.892;9.970;2024-01-10T01:11:49;-4.90;96.60
35463;DHT22;21578;47.892;9.970;2024-01-10T01:16:36;-4.80;96.60
35463;DHT22;21578;47.892;9.970;2024-01-10T01:21:23;-4.80;96.60
35463;DHT22;21578;47.892;9.970;2024-01-10T01:26:09;-4.80;96.60
35463;DHT22;21578;47.892;9.970;2024-01-10T01:30:59;-4.80;96.60
35463;DHT22;21578;47.892;9.970;2024-01-10T01:35:46;-4.80;96.60
35463;DHT22;21578;47.892;9.970;2024-01-10T01:40:32;-4.70;96.60
35463;DHT22;21578;47.892;9.970;2024-01-10T01:45:19;-4.60;96.60
35463;DHT22;21578;47.892;9.970;2024-01-10T01:50:08;-4.60;96.60
35463;DHT22;21578;47.892;9.970;2024-01-10T01:54:55;-4.60;96.60
35463;DHT22;21578;47.892;9.970;2024-01-10T01:59:42;-4.60;96.60
35463;DHT22;21578;47.892;9.970;2024-01-10T02:04:30;-4.60;96.60
35463;DHT22;21578;47.892;9.970;2024-01-10T02:09:19;-4.70;96.60
35463;DHT22;21578;47.892;9.970;2024-01-10T02:14:05;-4.60;96.60
35463;DHT22;21578;47.892;9.970;2024-01-10T02:18:52;-4.60;96.60
35463;DHT22;21578;47.892;9.970;2024-01-10T02:23:40;-4.60;96.60
35463;DHT22;21578;47.892;9.970;2024-01-10T02:28:28;-4.70;96.60
35463;DHT22;21578;47.892;9.970;2024-01-10T02:33:15;-4.60;96.60
35463;DHT22;21578;47.892;9.970;2024-01-10T02:38:02;-4.60;96.60
35463;DHT22;21578;47.892;9.970;2024-01-10T02:42:49;-4.60;96.60
35463;DHT22;21578;47.892;9.970;2024-01-10T02:47:37;-4.60;96.60
35463;DHT22;21578;47.892;9.970;2024-01-10T02:52:24;-4.50;96.60
35463;DHT22;21578;47.892;9.970;2024-01-10T02:57:11;-4.50;96.60
35463;DHT22;21578;47.892;9.970;2024-01-10T03:01:57;-4.50;96.60
35463;DHT22;21578;47.892;9.970;2024-01-10T03:06:46;-4.50;96.60
35463;DHT22;21578;47.892;9.970;2024-01-10T03:11:32;-4.40;96.60
35463;DHT22;21578;47.892;9.970;2024-01-10T03:16:20;-4.40;96.60
35463;DHT22;21578;47.892;9.970;2024-01-10T03:21:07;-4.40;96.60
35463;DHT22;21578;47.892;9.970;2024-01-10T03:25:55;-4.30;96.60
35463;DHT22;21578;47.892;9.970;2024-01-10T03:30:42;-4.20;96.60
35463;DHT22;21578;47.892;9.970;2024-01-10T03:35:29;-4.30;96.60
35463;DHT22;21578;47.892;9.970;2024-01-10T03:40:16;-4.40;96.60
35463;DHT22;21578;47.892;9.970;2024-01-10T03:45:05;-4.30;96.60
35463;DHT22;21578;47.892;9.970;2024-01-10T03:49:52;-4.30;96.60
35463;DHT22;21578;47.892;9.970;2024-01-10T03:54:38;-4.40;96.60
35463;DHT22;21578;47.892;9.970;2024-01-10T03:59:26;-4.30;96.60
35463;DHT22;21578;47.892;9.970;2024-01-10T04:04:14;-4.40;96.60
35463;DHT22;21578;47.892;9.970;2024-01-10T04:09:01;-4.40;96.60
35463;DHT22;21578;47.892;9.970;2024-01-10T04:13:48;-4.50;96.60
35463;DHT22;21578;47.892;9.970;2024-01-10T04:18:34;-4.40;96.60
35463;DHT22;21578;47.892;9.970;2024-01-10T04:23:22;-4.40;96.60
35463;DHT22;21578;47.892;9.970;2024-01-10T04:28:09;-4.40;96.60
35463;DHT22;21578;47.892;9.970;2024-01-10T04:32:56;-4.40;96.60
35463;DHT22;21578;47.892;9.970;2024-01-10T04:37:43;-4.40;96.60
35463;DHT22;21578;47.892;9.970;2024-01-10T04:42:31;-4.40;96.60
35463;DHT22;21578;47.892;9.970;2024-01-10T04:47:18;-4.40;96.60
35463;DHT22;21578;47.892;9.970;2024-01-10T04:52:05;-4.40;96.60
35463;DHT22;21578;47.892;9.970;2024-01-10T04:56:52;-4.40;96.60
35463;DHT22;21578;47.892;9.970;2024-01-10T05:01:41;-4.40;96.60
35463;DHT22;21578;47.892;9.970;2024-01-10T05:06:27;-4.40;96.60
35463;DHT22;21578;47.892;9.970;2024-01-10T05:11:15;-4.30;96.60
35463;DHT22;21578;47.892;9.970;2024-01-10T05:16:02;-4.20;96.60
35463;DHT22;21578;47.892;9.970;2024-01-10T05:20:50;-4.10;96.60
35463;DHT22;21578;47.892;9.970;2024-01-10T05:25:37;-4.10;96.60
35463;DHT22;21578;47.892;9.970;2024-01-10T05:30:24;-4.10;96.60
35463;DHT22;21578;47.892;9.970;2024-01-10T05:35:11;-4.10;96.60
35463;DHT22;21578;47.892;9.970;2024-01-10T05:39:59;-4.10;96.60
35463;DHT22;21578;47.892;9.970;2024-01-10T05:44:46;-4.10;96.60
35463;DHT22;21578;47.892;9.970;2024-01-10T05:49:32;-4.00;96.60
35463;DHT22;21578;47.892;9.970;2024-01-10T05:54:19;-4.10;96.60
35463;DHT22;21578;47.892;9.970;2024-01-10T05:59:07;-4.00;96.60
35463;DHT22;21578;47.892;9.970;2024-01-10T06:03:54;-4.00;96.60
35463;DHT22;21578;47.892;9.970;2024-01-10T06:08:41;-4.00;96.60
35463;DHT22;21578;47.892;9.970;2024-01-10T06:13:28;-3.90;96.60
35463;DHT22;21578;47.892;9.970;2024-01-10T06:18:16;-3.90;96.60
35463;DHT22;21578;47.892;9.970;2024-01-10T06:23:03;-4.00;96.60
35463;DHT22;21578;47.892;9.970;2024-01-10T06:27:50;-4.00;96.60
35463;DHT22;21578;47.892;9.970;2024-01-10T06:32:37;-4.00;96.60
35463;DHT22;21578;47.892;9.970;2024-01-10T06:37:25;-4.10;96.60
35463;DHT22;21578;47.892;9.970;2024-01-10T06:42:11;-4.10;96.60
35463;DHT22;21578;47.892;9.970;2024-01-10T06:46:58;-3.90;96.60
35463;DHT22;21578;47.892;9.970;2024-01-10T06:51:45;-3.90;96.60
35463;DHT22;21578;47.892;9.970;2024-01-10T06:56:33;-4.00;96.60
35463;DHT22;21578;47.892;9.970;2024-01-10T07:01:20;-3.90;96.60
35463;DHT22;21578;47.892;9.970;2024-01-10T07:06:07;-4.00;96.60
35463;DHT22;21578;47.892;9.970;2024-01-10T07:10:54;-4.00;96.60
35463;DHT22;21578;47.892;9.970;2024-01-10T07:15:42;-4.00;96.60
35463;DHT22;21578;47.892;9.970;2024-01-10T07:20:29;-3.90;96.60
35463;DHT22;21578;47.892;9.970;2024-01-10T07:25:16;-4.00;96.60
35463;DHT22;21578;47.892;9.970;2024-01-10T07:30:03;-4.00;96.60
35463;DHT22;21578;47.892;9.970;2024-01-10T07:34:51;-4.00;96.60
35463;DHT22;21578;47.892;9.970;2024-01-10T07:39:38;-4.00;96.60
35463;DHT22;21578;47.892;9.970;2024-01-10T07:44:25;-4.00;96.60
35463;DHT22;21578;47.892;9.970;2024-01-10T07:49:11;-4.00;96.60
35463;DHT22;21578;47.892;9.970;2024-01-10T07:54:00;-3.90;96.60
35463;DHT22;21578;47.892;9.970;2024-01-10T07:58:46;-3.90;96.60
35463;DHT22;21578;47.892;9.970;2024-01-10T08:03:34;-3.90;96.60
35463;DHT22;21578;47.892;9.970;2024-01-10T08:08:20;-3.90;96.60
35463;DHT22;21578;47.892;9.970;2024-01-10T08:13:08;-4.00;96.60
35463;DHT22;21578;47.892;9.970;2024-01-10T08:17:56;-3.90;96.60
35463;DHT22;21578;47.892;9.970;2024-01-10T08:22:43;-3.80;96.60
35463;DHT22;21578;47.892;9.970;2024-01-10T08:27:30;-3.60;96.60
35463;DHT22;21578;47.892;9.970;2024-01-10T08:32:18;-3.50;96.60
35463;DHT22;21578;47.892;9.970;2024-01-10T08:37:07;-3.50;96.60
35463;DHT22;21578;47.892;9.970;2024-01-10T08:41:54;-3.40;96.60
35463;DHT22;21578;47.892;9.970;2024-01-10T08:46:41;-3.30;96.60
35463;DHT22;21578;47.892;9.970;2024-01-10T08:51:29;-3.30;96.60
35463;DHT22;21578;47.892;9.970;2024-01-10T08:56:15;-3.30;96.60
35463;DHT22;21578;47.892;9.970;2024-01-10T09:01:03;-3.10;96.60
35463;DHT22;21578;47.892;9.970;2024-01-10T09:05:49;-2.90;96.60
35463;DHT22;21578;47.892;9.970;2024-01-10T09:10:38;-2.90;96.60
35463;DHT22;21578;47.892;9.970;2024-01-10T09:15:24;-2.90;96.60
35463;DHT22;21578;47.892;9.970;2024-01-10T09:20:12;-2.80;96.60
35463;DHT22;21578;47.892;9.970;2024-01-10T09:24:58;-2.80;96.60
35463;DHT22;21578;47.892;9.970;2024-01-10T09:29:50;-2.80;96.60
35463;DHT22;21578;47.892;9.970;2024-01-10T09:34:37;-2.70;96.60
35463;DHT22;21578;47.892;9.970;2024-01-10T09:39:24;-2.50;96.60
35463;DHT22;21578;47.892;9.970;2024-01-10T09:44:11;-2.30;96.60
35463;DHT22;21578;47.892;9.970;2024-01-10T09:48:59;-2.20;96.60
35463;DHT22;21578;47.892;9.970;2024-01-10T09:53:48;-2.20;96.60
35463;DHT22;21578;47.892;9.970;2024-01-10T09:58:36;-2.00;96.60
35463;DHT22;21578;47.892;9.970;2024-01-10T10:03:25;-2.00;96.60
35463;DHT22;21578;47.892;9.970;2024-01-10T10:08:14;-1.90;96.60
35463;DHT22;21578;47.892;9.970;2024-01-10T10:13:07;-1.70;96.60
35463;DHT22;21578;47.892;9.970;2024-01-10T10:17:56;-1.50;96.60
35463;DHT22;21578;47.892;9.970;2024-01-10T10:22:58;-1.50;96.60
35463;DHT22;21578;47.892;9.970;2024-01-10T10:27:47;-1.40;96.60
35463;DHT22;21578;47.892;9.970;2024-01-10T10:32:34;-1.50;96.60
35463;DHT22;21578;47.892;9.970;2024-01-10T10:37:21;-1.80;96.60
35463;DHT22;21578;47.892;9.970;2024-01-10T10:42:07;-1.80;96.60
35463;DHT22;21578;47.892;9.970;2024-01-10T10:46:59;-1.70;96.60
35463;DHT22;21578;47.892;9.970;2024-01-10T10:51:48;-1.70;96.60
35463;DHT22;21578;47.892;9.970;2024-01-10T10:56:37;-1.60;96.60
35463;DHT22;21578;47.892;9.970;2024-01-10T11:01:25;-1.40;96.60
35463;DHT22;21578;47.892;9.970;2024-01-10T11:06:14;-1.30;96.60
35463;DHT22;21578;47.892;9.970;2024-01-10T11:11:06;-1.40;96.60
35463;DHT22;21578;47.892;9.970;2024-01-10T11:16:13;-1.50;96.60
35463;DHT22;21578;47.892;9.970;2024-01-10T11:21:12;-1.70;96.60
35463;DHT22;21578;47.892;9.970;2024-01-10T11:26:04;-1.60;96.60
35463;DHT22;21578;47.892;9.970;2024-01-10T11:30:53;-1.40;96.60
35463;DHT22;21578;47.892;9.970;2024-01-10T11:35:42;-1.70;96.60
35463;DHT22;21578;47.892;9.970;2024-01-10T11:40:46;-1.80;96.60
35463;DHT22;21578;47.892;9.970;2024-01-10T11:45:38;-1.80;96.60
35463;DHT22;21578;47.892;9.970;2024-01-10T11:50:24;-1.90;96.60
35463;DHT22;21578;47.892;9.970;2024-01-10T11:55:46;-1.70;96.60
35463;DHT22;21578;47.892;9.970;2024-01-10T12:00:33;-1.70;96.60
35463;DHT22;21578;47.892;9.970;2024-01-10T12:05:22;-1.50;96.60
35463;DHT22;21578;47.892;9.970;2024-01-10T12:10:09;-1.40;96.60
35463;DHT22;21578;47.892;9.970;2024-01-10T12:14:56;-1.50;96.60
35463;DHT22;21578;47.892;9.970;2024-01-10T12:19:44;-1.50;96.60
35463;DHT22;21578;47.892;9.970;2024-01-10T12:24:42;-1.60;96.60
35463;DHT22;21578;47.892;9.970;2024-01-10T12:29:29;-1.70;96.60
35463;DHT22;21578;47.892;9.970;2024-01-10T12:34:16;-1.80;96.60
35463;DHT22;21578;47.892;9.970;2024-01-10T12:39:03;-1.80;96.60
35463;DHT22;21578;47.892;9.970;2024-01-10T12:43:54;-1.80;96.60
35463;DHT22;21578;47.892;9.970;2024-01-10T12:48:41;-1.70;96.60
35463;DHT22;21578;47.892;9.970;2024-01-10T12:53:29;-1.80;96.60
35463;DHT22;21578;47.892;9.970;2024-01-10T12:58:16;-1.70;96.60
35463;DHT22;21578;47.892;9.970;2024-01-10T13:03:04;-1.40;96.60
35463;DHT22;21578;47.892;9.970;2024-01-10T13:07:51;-1.20;96.60
35463;DHT22;21578;47.892;9.970;2024-01-10T13:12:37;-1.20;96.60
35463;DHT22;21578;47.892;9.970;2024-01-10T13:17:24;-1.10;96.60
35463;DHT22;21578;47.892;9.970;2024-01-10T13:22:12;-1.00;96.60
35463;DHT22;21578;47.892;9.970;2024-01-10T13:27:01;-0.90;96.60
35463;DHT22;21578;47.892;9.970;2024-01-10T13:31:48;-0.90;96.60
35463;DHT22;21578;47.892;9.970;2024-01-10T13:36:35;-1.10;96.60
35463;DHT22;21578;47.892;9.970;2024-01-10T13:41:23;-1.40;96.60
35463;DHT22;21578;47.892;9.970;2024-01-10T13:46:11;-1.70;96.60
35463;DHT22;21578;47.892;9.970;2024-01-10T13:50:58;-1.90;96.60
35463;DHT22;21578;47.892;9.970;2024-01-10T13:55:44;-2.00;96.60
35463;DHT22;21578;47.892;9.970;2024-01-10T14:00:33;-1.90;96.60
35463;DHT22;21578;47.892;9.970;2024-01-10T14:05:20;-1.80;96.60
35463;DHT22;21578;47.892;9.970;2024-01-10T14:10:07;-1.80;96.60
35463;DHT22;21578;47.892;9.970;2024-01-10T14:14:56;-1.90;96.60
35463;DHT22;21578;47.892;9.970;2024-01-10T14:19:44;-2.00;96.60
35463;DHT22;21578;47.892;9.970;2024-01-10T14:24:31;-2.10;96.60
35463;DHT22;21578;47.892;9.970;2024-01-10T14:29:18;-2.10;96.60
35463;DHT22;21578;47.892;9.970;2024-01-10T14:34:05;-2.10;96.60
35463;DHT22;21578;47.892;9.970;2024-01-10T14:38:54;-2.00;96.60
35463;DHT22;21578;47.892;9.970;2024-01-10T14:43:40;-2.00;96.60
35463;DHT22;21578;47.892;9.970;2024-01-10T14:48:27;-2.00;96.60
35463;DHT22;21578;47.892;9.970;2024-01-10T14:53:14;-2.20;96.60
35463;DHT22;21578;47.892;9.970;2024-01-10T14:58:03;-2.20;96.60
35463;DHT22;21578;47.892;9.970;2024-01-10T15:02:50;-2.20;96.60
35463;DHT22;21578;47.892;9.970;2024-01-10T15:07:36;-2.10;96.60
35463;DHT22;21578;47.892;9.970;2024-01-10T15:12:23;-2.10;96.60
35463;DHT22;21578;47.892;9.970;2024-01-10T15:17:12;-2.10;96.60
35463;DHT22;21578;47.892;9.970;2024-01-10T15:21:58;-2.10;96.60
35463;DHT22;21578;47.892;9.970;2024-01-10T15:26:45;-2.20;96.60
35463;DHT22;21578;47.892;9.970;2024-01-10T15:31:32;-2.30;96.60
35463;DHT22;21578;47.892;9.970;2024-01-10T15:36:21;-2.30;96.60
35463;DHT22;21578;47.892;9.970;2024-01-10T15:41:08;-2.40;96.60
35463;DHT22;21578;47.892;9.970;2024-01-10T15:45:56;-2.40;96.60
35463;DHT22;21578;47.892;9.970;2024-01-10T15:50:42;-2.50;96.60
35463;DHT22;21578;47.892;9.970;2024-01-10T15:55:31;-2.50;96.60
35463;DHT22;21578;47.892;9.970;2024-01-10T16:00:20;-2.70;96.60
35463;DHT22;21578;47.892;9.970;2024-01-10T16:05:07;-2.90;96.60
35463;DHT22;21578;47.892;9.970;2024-01-10T16:09:54;-2.90;96.60
35463;DHT22;21578;47.892;9.970;2024-01-10T16:14:42;-3.00;96.60
35463;DHT22;21578;47.892;9.970;2024-01-10T16:19:29;-3.00;96.60
35463;DHT22;21578;47.892;9.970;2024-01-10T16:24:16;-3.00;96.60
35463;DHT22;21578;47.892;9.970;2024-01-10T16:29:03;-3.00;96.60
35463;DHT22;21578;47.892;9.970;2024-01-10T16:33:51;-3.00;96.60
35463;DHT22;21578;47.892;9.970;2024-01-10T16:38:38;-3.00;96.60
35463;DHT22;21578;47.892;9.970;2024-01-10T16:43:25;-3.10;96.60
35463;DHT22;21578;47.892;9.970;2024-01-10T16:48:13;-3.10;96.60
35463;DHT22;21578;47.892;9.970;2024-01-10T16:53:01;-3.20;96.60
35463;DHT22;21578;47.892;9.970;2024-01-10T16:57:48;-3.20;96.60
35463;DHT22;21578;47.892;9.970;2024-01-10T17:02:36;-3.20;96.60
35463;DHT22;21578;47.892;9.970;2024-01-10T17:07:23;-3.20;96.60
35463;DHT22;21578;47.892;9.970;2024-01-10T17:12:11;-3.30;96.60
35463;DHT22;21578;47.892;9.970;2024-01-10T17:16:58;-3.30;96.60
35463;DHT22;21578;47.892;9.970;2024-01-10T17:21:45;-3.30;96.60
35463;DHT22;21578;47.892;9.970;2024-01-10T17:26:32;-3.40;96.60
35463;DHT22;21578;47.892;9.970;2024-01-10T17:31:20;-3.40;96.60
35463;DHT22;21578;47.892;9.970;2024-01-10T17:36:07;-3.50;96.60
35463;DHT22;21578;47.892;9.970;2024-01-10T17:40:53;-3.40;96.60
35463;DHT22;21578;47.892;9.970;2024-01-10T17:45:40;-3.50;96.60
35463;DHT22;21578;47.892;9.970;2024-01-10T17:50:28;-3.50;96.60
35463;DHT22;21578;47.892;9.970;2024-01-10T17:55:16;-3.50;96.60
35463;DHT22;21578;47.892;9.970;2024-01-10T18:00:04;-3.60;96.60
35463;DHT22;21578;47.892;9.970;2024-01-10T18:04:54;-3.50;96.60
35463;DHT22;21578;47.892;9.970;2024-01-10T18:09:42;-3.60;96.60
35463;DHT22;21578;47.892;9.970;2024-01-10T18:14:29;-3.60;96.60
35463;DHT22;21578;47.892;9.970;2024-01-10T18:19:16;-3.60;96.60
35463;DHT22;21578;47.892;9.970;2024-01-10T18:24:04;-3.70;96.60
35463;DHT22;21578;47.892;9.970;2024-01-10T18:28:52;-3.80;96.60
35463;DHT22;21578;47.892;9.970;2024-01-10T18:33:39;-3.80;96.60
35463;DHT22;21578;47.892;9.970;2024-01-10T18:38:26;-3.90;96.60
35463;DHT22;21578;47.892;9.970;2024-01-10T18:43:12;-3.90;96.60
35463;DHT22;21578;47.892;9.970;2024-01-10T18:48:01;-4.00;96.60
35463;DHT22;21578;47.892;9.970;2024-01-10T18:52:47;-4.00;96.60
35463;DHT22;21578;47.892;9.970;2024-01-10T18:57:34;-4.00;96.60
35463;DHT22;21578;47.892;9.970;2024-01-10T19:02:21;-4.00;96.60
35463;DHT22;21578;47.892;9.970;2024-01-10T19:07:09;-4.10;96.60
35463;DHT22;21578;47.892;9.970;2024-01-10T19:11:56;-4.10;96.60
35463;DHT22;21578;47.892;9.970;2024-01-10T19:16:42;-4.10;96.60
35463;DHT22;21578;47.892;9.970;2024-01-10T19:21:30;-4.10;96.60
35463;DHT22;21578;47.892;9.970;2024-01-10T19:26:22;-4.20;96.60
35463;DHT22;21578;47.892;9.970;2024-01-10T19:31:08;-4.20;96.60
35463;DHT22;21578;47.892;9.970;2024-01-10T19:35:57;-4.20;96.60
35463;DHT22;21578;47.892;9.970;2024-01-10T19:40:43;-4.20;96.60
35463;DHT22;21578;47.892;9.970;2024-01-10T19:45:31;-4.30;96.60
35463;DHT22;21578;47.892;9.970;2024-01-10T19:50:18;-4.40;96.60
35463;DHT22;21578;47.892;9.970;2024-01-10T19:55:08;-4.40;96.60
35463;DHT22;21578;47.892;9.970;2024-01-10T19:59:55;-4.40;96.60
35463;DHT22;21578;47.892;9.970;2024-01-10T20:04:43;-4.40;96.60
35463;DHT22;21578;47.892;9.970;2024-01-10T20:09:30;-4.40;96.60
35463;DHT22;21578;47.892;9.970;2024-01-10T20:14:17;-4.40;96.60
35463;DHT22;21578;47.892;9.970;2024-01-10T20:19:04;-4.40;96.60
35463;DHT22;21578;47.892;9.970;2024-01-10T20:23:52;-4.50;96.60
35463;DHT22;21578;47.892;9.970;2024-01-10T20:28:38;-4.50;96.60
35463;DHT22;21578;47.892;9.970;2024-01-10T20:33:25;-4.60;96.60
35463;DHT22;21578;47.892;9.970;2024-01-10T20:38:12;-4.60;96.60
35463;DHT22;21578;47.892;9.970;2024-01-10T20:43:00;-4.60;96.60
35463;DHT22;21578;47.892;9.970;2024-01-10T20:47:47;-4.60;96.60
35463;DHT22;21578;47.892;9.970;2024-01-10T20:52:33;-4.60;96.60
35463;DHT22;21578;47.892;9.970;2024-01-10T20:57:20;-4.60;96.60
35463;DHT22;21578;47.892;9.970;2024-01-10T21:02:09;-4.70;96.60
35463;DHT22;21578;47.892;9.970;2024-01-10T21:06:56;-4.70;96.60
35463;DHT22;21578;47.892;9.970;2024-01-10T21:11:44;-4.80;96.60
35463;DHT22;21578;47.892;9.970;2024-01-10T21:16:31;-4.80;96.60
35463;DHT22;21578;47.892;9.970;2024-01-10T21:21:21;-4.80;96.60
35463;DHT22;21578;47.892;9.970;2024-01-10T21:26:09;-4.90;96.60
35463;DHT22;21578;47.892;9.970;2024-01-10T21:30:56;-4.90;96.60
35463;DHT22;21578;47.892;9.970;2024-01-10T21:35:43;-4.90;96.60
35463;DHT22;21578;47.892;9.970;2024-01-10T21:40:31;-4.90;96.60
35463;DHT22;21578;47.892;9.970;2024-01-10T21:45:18;-5.00;96.60
35463;DHT22;21578;47.892;9.970;2024-01-10T21:50:07;-5.00;96.60
35463;DHT22;21578;47.892;9.970;2024-01-10T21:54:55;-5.00;96.60
35463;DHT22;21578;47.892;9.970;2024-01-10T21:59:45;-4.90;96.60
35463;DHT22;21578;47.892;9.970;2024-01-10T22:04:31;-4.90;96.60
35463;DHT22;21578;47.892;9.970;2024-01-10T22:09:19;-4.90;96.60
35463;DHT22;21578;47.892;9.970;2024-01-10T22:14:05;-4.90;96.60
35463;DHT22;21578;47.892;9.970;2024-01-10T22:18:53;-4.90;96.60
35463;DHT22;21578;47.892;9.970;2024-01-10T22:23:40;-5.00;96.60
35463;DHT22;21578;47.892;9.970;2024-01-10T22:28:27;-5.00;96.60
35463;DHT22;21578;47.892;9.970;2024-01-10T22:33:14;-5.00;96.60
35463;DHT22;21578;47.892;9.970;2024-01-10T22:38:02;-5.00;96.60
35463;DHT22;21578;47.892;9.970;2024-01-10T22:42:49;-5.10;96.60
35463;DHT22;21578;47.892;9.970;2024-01-10T22:47:37;-5.10;96.60
35463;DHT22;21578;47.892;9.970;2024-01-10T22:52:24;-5.10;96.60
35463;DHT22;21578;47.892;9.970;2024-01-10T22:57:12;-5.20;96.60
35463;DHT22;21578;47.892;9.970;2024-01-10T23:01:59;-5.30;96.60
35463;DHT22;21578;47.892;9.970;2024-01-10T23:06:45;-5.40;96.60
35463;DHT22;21578;47.892;9.970;2024-01-10T23:11:33;-5.40;96.60
35463;DHT22;21578;47.892;9.970;2024-01-10T23:16:21;-5.50;96.60
35463;DHT22;21578;47.892;9.970;2024-01-10T23:21:09;-5.50;96.60
35463;DHT22;21578;47.892;9.970;2024-01-10T23:25:56;-5.50;96.60
35463;DHT22;21578;47.892;9.970;2024-01-10T23:30:42;-5.40;96.60
35463;DHT22;21578;47.892;9.970;2024-01-10T23:35:30;-5.30;96.60
35463;DHT22;21578;47.892;9.970;2024-01-10T23:40:18;-5.30;96.60
35463;DHT22;21578;47.892;9.970;2024-01-10T23:45:05;-5.40;96.60
35463;DHT22;21578;47.892;9.970;2024-01-10T23:49:52;-5.40;96.60
35463;DHT22;21578;47.892;9.970;2024-01-10T23:54:40;-5.40;96.60
35463;DHT22;21578;47.892;9.970;2024-01-10T23:59:27;-5.40;96.60
